Time;durP1;ratioP1;P1;durP2;ratioP2;P2;SDS_P1;SDS_P2;PMS_P1;PMS_P2;Temp;Humidity;BMP_temperature;BMP_pressure;BME280_temperature;BME280_humidity;BME280_pressure;Samples;Min_cycle;Max_cycle;Signal;HPM_P1;HPM_P2
2022/08/27 00:01:58;;;;;;;6.45;2.05;;;;;;;17.64;79.27;101738.09;5114200;28;20031;-34
2022/08/27 00:04:24;;;;;;;4.45;1.52;;;;;;;17.58;80.03;101730.91;5114581;28;20030;-34
2022/08/27 00:06:49;;;;;;;5.72;1.63;;;;;;;17.60;80.10;101747.88;5113961;28;20382;-35
2022/08/27 00:09:15;;;;;;;;;;;;;;;17.74;78.47;101740.97;5114316;28;20339;-35
2022/08/27 00:11:40;;;;;;;5.68;2.00;;;;;;;17.55;79.94;101734.16;5114272;28;19907;-34
2022/08/27 00:14:05;;;;;;;;;;;;;;;17.67;78.64;101740.31;5114816;28;20039;-34
2022/08/27 00:16:31;;;;;;;6.57;1.92;;;;;;;17.56;79.77;101732.22;5114446;28;19908;-34
2022/08/27 00:18:57;;;;;;;;;;;;;;;17.64;78.66;101732.63;5114414;28;20032;-34
2022/08/27 00:21:24;;;;;;;3.60;1.45;;;;;;;17.51;79.78;101733.81;5114055;28;19920;-34
2022/08/27 00:23:49;;;;;;;5.50;1.92;;;;;;;17.32;80.68;101729.75;5113679;28;20459;-34
2022/08/27 00:26:14;;;;;;;;;;;;;;;17.49;79.05;101730.53;5114691;28;20098;-35
2022/08/27 00:28:41;;;;;;;4.43;2.08;;;;;;;17.35;80.34;101733.91;5114644;28;20023;-35
2022/08/27 00:31:06;;;;;;;6.30;2.08;;;;;;;17.17;81.25;101732.31;5114117;28;20042;-34
2022/08/27 00:33:32;;;;;;;;;;;;;;;17.36;79.23;101730.91;5114029;28;20032;-34
2022/08/27 00:35:57;;;;;;;5.07;1.35;;;;;;;17.16;80.64;101723.28;5113758;28;20047;-35
2022/08/27 00:38:23;;;;;;;;;;;;;;;17.33;79.71;101730.63;5114910;28;20455;-34
2022/08/27 00:40:49;;;;;;;4.67;1.83;;;;;;;17.15;80.76;101720.81;5113637;28;19941;-35
2022/08/27 00:43:25;;;;;;;8.13;2.15;;;;;;;16.97;81.44;101732.88;5113746;28;20069;-35
2022/08/27 00:45:54;;;;;;;4.90;2.17;;;;;;;16.93;82.07;101731.69;5113654;28;20031;-34
2022/08/27 00:48:24;;;;;;;3.28;1.48;;;;;;;16.93;82.14;101723.50;5112564;28;20023;-34
2022/08/27 00:50:51;;;;;;;4.10;2.17;;;;;;;16.96;82.06;101729.31;5113548;28;20123;-35
2022/08/27 00:53:21;;;;;;;7.30;2.08;;;;;;;16.85;82.73;101729.44;5113508;28;20115;-35
2022/08/27 00:56:09;;;;;;;6.60;2.25;;;;;;;16.88;82.06;101735.19;5113830;28;20432;-35
2022/08/27 00:58:38;;;;;;;5.38;2.05;;;;;;;16.83;83.57;101739.75;5113309;28;20475;-34
2022/08/27 01:01:07;;;;;;;4.50;1.83;;;;;;;16.76;83.37;101729.03;5113455;28;20027;-34
2022/08/27 01:03:33;;;;;;;5.07;1.80;;;;;;;16.83;82.91;101732.38;5113718;28;20039;-34
2022/08/27 01:06:00;;;;;;;4.43;1.95;;;;;;;16.82;83.94;101732.66;5112892;28;20019;-34
2022/08/27 01:08:30;;;;;;;4.40;2.30;;;;;;;16.70;83.90;101728.09;5114138;28;20034;-34
2022/08/27 01:10:58;;;;;;;4.13;1.83;;;;;;;16.73;83.61;101733.06;5113553;28;20036;-34
2022/08/27 01:13:26;;;;;;;5.43;1.77;;;;;;;16.73;83.42;101733.06;5112981;28;20023;-34
2022/08/27 01:15:57;;;;;;;7.18;2.20;;;;;;;16.70;84.15;101728.09;5113262;28;20058;-34
2022/08/27 01:18:23;;;;;;;4.82;1.98;;;;;;;16.65;83.77;101716.28;5113707;28;20107;-34
2022/08/27 01:21:00;;;;;;;5.60;1.65;;;;;;;16.69;84.42;101731.91;5113468;28;20023;-34
2022/08/27 01:23:37;;;;;;;5.15;2.30;;;;;;;16.51;84.61;101707.59;5113923;28;20031;-34
2022/08/27 01:26:05;;;;;;;3.58;1.83;;;;;;;16.54;84.29;101708.97;5113956;28;20039;-34
2022/08/27 01:28:32;;;;;;;5.03;2.25;;;;;;;16.56;85.23;101721.31;5113869;28;20111;-34
2022/08/27 01:30:57;;;;;;;4.25;1.45;;;;;;;16.60;85.46;101725.22;5113130;28;20078;-34
2022/08/27 01:33:22;;;;;;;;;;;;;;;16.75;83.47;101723.81;5113857;28;20031;-34
2022/08/27 01:35:50;;;;;;;7.03;2.20;;;;;;;16.51;85.73;101723.16;5113336;28;19955;-34
2022/08/27 01:38:16;;;;;;;5.00;2.20;;;;;;;16.42;85.77;101725.47;5113003;28;20340;-34
2022/08/27 01:40:42;;;;;;;3.88;1.60;;;;;;;16.47;85.89;101731.00;5113078;28;20024;-34
2022/08/27 01:43:08;;;;;;;;;;;;;;;16.57;83.96;101722.97;5113512;28;20028;-34
2022/08/27 01:45:37;;;;;;;5.80;2.22;;;;;;;16.37;86.21;101718.00;5112998;28;19914;-34
2022/08/27 01:48:03;;;;;;;4.55;1.77;;;;;;;16.29;86.36;101717.59;5113547;28;20088;-34
2022/08/27 01:50:33;;;;;;;5.85;2.40;;;;;;;16.39;86.44;101715.84;5112940;28;20035;-34
2022/08/27 01:53:11;;;;;;;5.22;1.80;;;;;;;16.29;86.54;101706.69;5113535;28;20031;-34
2022/08/27 01:55:37;;;;;;;4.50;2.33;;;;;;;16.26;86.32;101707.19;5112602;28;20024;-34
2022/08/27 01:58:03;;;;;;;5.63;2.30;;;;;;;16.25;86.60;101705.50;5113098;28;20054;-34
2022/08/27 02:00:31;;;;;;;;;;;;;;;16.47;85.17;101725.53;5113816;28;20024;-34
2022/08/27 02:02:57;;;;;;;4.57;1.85;;;;;;;16.35;86.39;101709.25;5113087;28;19912;-34
2022/08/27 02:05:24;;;;;;;6.75;2.28;;;;;;;16.29;86.81;101699.31;5112992;28;20032;-34
2022/08/27 02:07:50;;;;;;;6.10;2.58;;;;;;;16.34;87.03;101712.22;5113570;28;20032;-34
2022/08/27 02:10:21;;;;;;;5.13;2.00;;;;;;;16.37;87.20;101715.28;5111009;28;20082;-34
2022/08/27 02:12:46;;;;;;;5.55;2.00;;;;;;;16.38;86.87;101708.75;5113079;28;20027;-34
2022/08/27 02:15:11;;;;;;;;;;;;;;;16.51;85.10;101712.22;5113168;28;20031;-34
2022/08/27 02:17:37;;;;;;;5.20;2.35;;;;;;;16.31;87.21;101707.28;5114371;28;19908;-34
2022/08/27 02:20:03;;;;;;;;;;;;;;;16.47;85.17;101703.69;5117412;28;20080;-34
2022/08/27 02:22:28;;;;;;;6.50;2.03;;;;;;;16.33;88.02;101710.56;5116864;28;19956;-34
2022/08/27 02:24:54;;;;;;;;;;;;;;;16.45;85.74;101708.59;5117494;28;20114;-34
2022/08/27 02:27:20;;;;;;;4.30;2.17;;;;;;;16.28;87.58;101699.56;5116313;28;19915;-34
2022/08/27 02:29:46;;;;;;;;;;;;;;;16.43;85.44;101702.53;5116620;28;20466;-34
2022/08/27 02:32:11;;;;;;;3.47;1.70;;;;;;;16.22;87.48;101699.50;5116997;28;19930;-34
2022/08/27 02:34:37;;;;;;;;;;;;;;;16.39;85.73;101701.38;5116296;28;20478;-34
2022/08/27 02:37:02;;;;;;;4.33;1.97;;;;;;;16.17;88.40;101696.69;5114937;28;19914;-34
2022/08/27 02:39:28;;;;;;;;;;;;;;;16.35;86.35;101706.53;5116678;28;20032;-34
2022/08/27 02:41:53;;;;;;;4.10;2.30;;;;;;;16.22;87.92;101698.66;5116104;28;19919;-34
2022/08/27 02:44:18;;;;;;;;;;;;;;;16.32;85.95;101698.81;5116066;28;20023;-34
2022/08/27 02:46:44;;;;;;;5.77;2.50;;;;;;;16.16;88.25;101686.84;5116346;28;19912;-35
2022/08/27 02:49:09;;;;;;;;;;;;;;;16.27;85.79;101690.56;5116420;28;20050;-34
2022/08/27 02:51:35;;;;;;;5.30;2.08;;;;;;;16.01;88.30;101674.84;5115957;28;20018;-34
2022/08/27 02:54:01;;;;;;;;;;;;;;;16.22;85.94;101699.50;5116243;27;20435;-34
2022/08/27 02:56:26;;;;;;;3.65;2.15;;;;;;;16.01;88.99;101694.78;5116018;28;19912;-34
2022/08/27 02:58:52;;;;;;;4.93;2.28;;;;;;;15.93;88.92;101689.72;5116257;28;20123;-34
2022/08/27 03:01:17;;;;;;;;;;;;;;;16.09;86.66;101688.91;5116396;28;20054;-34
2022/08/27 03:03:42;;;;;;;6.20;2.30;;;;;;;15.92;89.12;101694.34;5115963;28;19907;-34
2022/08/27 03:06:08;;;;;;;4.28;2.25;;;;;;;15.82;89.33;101686.00;5114772;28;20249;-34
2022/08/27 03:08:33;;;;;;;;;;;;;;;16.01;87.51;101697.50;5116257;28;20032;-34
2022/08/27 03:10:58;;;;;;;4.37;2.30;;;;;;;15.84;89.79;101704.81;5115447;28;19996;-34
2022/08/27 03:13:24;;;;;;;;;;;;;;;15.98;87.83;101697.97;5115966;28;20523;-34
2022/08/27 03:15:50;;;;;;;5.90;2.40;;;;;;;15.77;90.53;101685.91;5115580;28;19915;-34
2022/08/27 03:18:20;;;;;;;4.95;2.03;;;;;;;15.77;90.72;101695.97;5116024;28;20077;-35
2022/08/27 03:20:49;;;;;;;4.28;2.28;;;;;;;15.81;91.06;101705.28;5115209;28;20027;-35
2022/08/27 03:23:15;;;;;;;5.93;2.50;;;;;;;15.82;90.96;101699.63;5115507;28;20031;-34
2022/08/27 03:25:50;;;;;;;6.60;2.30;;;;;;;15.85;91.03;101701.00;5115356;28;20027;-34
2022/08/27 03:28:16;;;;;;;6.35;2.35;;;;;;;15.80;91.83;101696.28;5114584;27;20114;-34
2022/08/27 03:30:44;;;;;;;8.05;2.45;;;;;;;15.75;91.16;101688.03;5115607;28;20051;-34
2022/08/27 03:33:10;;;;;;;6.90;2.13;;;;;;;15.76;90.85;101686.13;5115109;28;20106;-34
2022/08/27 03:35:36;;;;;;;;;;;;;;;16.01;89.25;101699.41;5115382;28;20036;-34
2022/08/27 03:38:01;;;;;;;6.32;2.28;;;;;;;15.90;90.67;101709.28;5114980;28;19922;-34
2022/08/27 03:40:27;;;;;;;6.53;2.20;;;;;;;15.78;90.85;101682.09;5114886;28;20034;-34
2022/08/27 03:42:52;;;;;;;;;;;;;;;16.02;89.10;101698.31;5115269;28;20118;-34
2022/08/27 03:45:17;;;;;;;4.70;1.80;;;;;;;15.91;91.05;101710.97;5114514;28;19919;-34
2022/08/27 03:47:42;;;;;;;;;;;;;;;16.01;88.86;101708.41;5115460;28;20028;-34
2022/08/27 03:50:09;;;;;;;3.70;1.80;;;;;;;15.70;91.22;101691.47;5114718;28;19908;-34
2022/08/27 03:52:35;;;;;;;4.82;1.77;;;;;;;15.75;91.47;101693.47;5114931;28;20262;-34
2022/08/27 03:55:02;;;;;;;;;;;;;;;15.96;89.20;101697.41;5114651;28;20437;-34
2022/08/27 03:57:27;;;;;;;4.40;2.10;;;;;;;15.87;90.48;101707.06;5114822;28;20005;-34
2022/08/27 03:59:52;;;;;;;;;;;;;;;15.98;88.65;101708.91;5115173;28;20836;-34
2022/08/27 04:02:18;;;;;;;2.97;1.80;;;;;;;15.73;90.53;101703.00;5114944;28;20278;-34
2022/08/27 04:04:43;;;;;;;4.03;2.20;;;;;;;15.69;90.88;101706.19;5115069;28;20314;-34
2022/08/27 04:07:09;;;;;;;4.03;2.05;;;;;;;15.71;91.47;101708.66;5114729;28;20038;-34
2022/08/27 04:09:34;;;;;;;5.65;2.55;;;;;;;15.58;91.29;101690.69;5114256;28;20094;-34
2022/08/27 04:11:59;;;;;;;;;;;;;;;15.80;89.29;101709.94;5115045;28;20039;-34
2022/08/27 04:14:25;;;;;;;3.97;1.80;;;;;;;15.62;91.36;101710.13;5114432;28;19960;-34
2022/08/27 04:16:50;;;;;;;;;;;;;;;15.75;89.14;101703.56;5115517;27;20026;-33
2022/08/27 04:19:15;;;;;;;5.47;2.20;;;;;;;15.57;91.33;101701.84;5114487;28;20006;-33
2022/08/27 04:21:41;;;;;;;;;;;;;;;15.69;89.37;101700.75;5114589;28;20339;-33
2022/08/27 04:24:07;;;;;;;3.60;1.98;;;;;;;15.59;91.48;101699.69;5113768;28;19911;-33
2022/08/27 04:26:33;;;;;;;6.05;2.75;;;;;;;15.51;91.70;101692.72;5114006;28;20024;-35
2022/08/27 04:28:59;;;;;;;;;;;;;;;15.67;89.66;101693.91;5114752;28;20033;-35
2022/08/27 04:31:24;;;;;;;5.35;2.28;;;;;;;15.42;92.11;101688.72;5114931;28;19943;-35
2022/08/27 04:33:52;;;;;;;6.65;2.42;;;;;;;15.43;92.27;101704.03;5114753;28;20032;-36
2022/08/27 04:36:18;;;;;;;5.88;2.13;;;;;;;15.36;92.61;101701.44;5114355;28;20032;-36
2022/08/27 04:38:44;;;;;;;5.03;2.78;;;;;;;15.35;92.53;101712.56;5113723;28;20118;-36
2022/08/27 04:41:19;;;;;;;;;;;;;;;15.50;90.45;101707.44;5114024;28;20028;-34
2022/08/27 04:43:47;;;;;;;6.20;2.42;;;;;;;15.33;93.08;101712.81;5114384;28;19908;-34
2022/08/27 04:46:12;;;;;;;6.47;2.45;;;;;;;15.39;93.77;101716.47;5113346;28;20055;-34
2022/08/27 04:48:38;;;;;;;;;;;;;;;15.52;91.62;101709.91;5113745;28;20049;-34
2022/08/27 04:51:03;;;;;;;4.53;2.50;;;;;;;15.34;93.28;101710.94;5113828;28;19914;-34
2022/08/27 04:53:28;;;;;;;;;;;;;;;15.54;91.47;101719.50;5113965;28;20031;-34
2022/08/27 04:55:55;;;;;;;5.73;2.43;;;;;;;15.41;93.43;101712.44;5114309;28;20359;-34
2022/08/27 04:58:23;;;;;;;4.53;2.50;;;;;;;15.39;93.64;101716.47;5114176;28;20372;-34
2022/08/27 05:00:53;;;;;;;6.82;2.67;;;;;;;15.39;93.66;101716.47;5114128;28;20056;-34
2022/08/27 05:03:24;;;;;;;5.43;2.40;;;;;;;15.40;94.30;101710.78;5113601;28;20463;-35
2022/08/27 05:05:51;;;;;;;6.07;2.80;;;;;;;15.41;94.34;101708.88;5113788;28;20418;-35
2022/08/27 05:08:17;;;;;;;7.88;2.88;;;;;;;15.48;94.33;101715.03;5114317;28;20038;-34
2022/08/27 05:10:44;;;;;;;;;;;;;;;15.61;92.60;101713.91;5113614;28;20020;-35
2022/08/27 05:13:10;;;;;;;6.03;2.42;;;;;;;15.44;94.32;101708.41;5113684;28;19946;-34
2022/08/27 05:15:36;;;;;;;3.90;2.28;;;;;;;15.43;94.80;101704.03;5113316;28;20108;-35
2022/08/27 05:18:02;;;;;;;;;;;;;;;15.66;92.36;101717.59;5114162;28;20406;-35
2022/08/27 05:20:29;;;;;;;7.38;3.15;;;;;;;15.55;93.43;101709.44;5113218;28;20431;-33
2022/08/27 05:22:55;;;;;;;6.15;2.83;;;;;;;15.67;94.13;101716.53;5113337;28;20031;-33
2022/08/27 05:25:20;;;;;;;;;;;;;;;15.84;92.47;101727.47;5113646;28;20030;-34
2022/08/27 05:27:46;;;;;;;4.63;2.67;;;;;;;15.87;93.12;101728.88;5114029;28;19967;-34
2022/08/27 05:30:11;;;;;;;;;;;;;;;16.00;91.72;101725.84;5113355;28;20023;-35
2022/08/27 05:32:38;;;;;;;5.93;3.03;;;;;;;15.98;92.64;101732.63;5113113;28;19956;-35
2022/08/27 05:35:04;;;;;;;5.35;2.80;;;;;;;15.92;92.31;101715.34;5113151;28;20039;-34
2022/08/27 05:37:32;;;;;;;4.90;2.70;;;;;;;16.05;92.31;101731.38;5113062;28;20103;-34
2022/08/27 05:40:01;;;;;;;5.70;2.78;;;;;;;16.09;92.41;101731.72;5112639;28;20463;-34
2022/08/27 05:42:29;;;;;;;6.63;3.22;;;;;;;16.08;92.56;101713.69;5113935;28;20371;-35
2022/08/27 05:44:55;;;;;;;5.95;2.85;;;;;;;16.18;92.50;101722.06;5112776;28;20085;-36
2022/08/27 05:47:20;;;;;;;5.38;2.80;;;;;;;16.16;91.96;101710.56;5112062;28;20082;-36
2022/08/27 05:49:45;;;;;;;;;;;;;;;16.38;91.17;101727.84;5114008;28;20034;-35
2022/08/27 05:52:11;;;;;;;6.97;3.15;;;;;;;16.25;91.56;101711.81;5116074;28;20025;-36
2022/08/27 05:54:37;;;;;;;;;;;;;;;16.43;91.03;101727.09;5117214;28;20055;-35
2022/08/27 05:57:02;;;;;;;3.90;2.40;;;;;;;16.25;91.80;101722.75;5116778;28;19934;-35
2022/08/27 06:02:11;;;;;;;4.28;2.90;;;;;;;16.29;91.82;101725.78;5116728;28;20035;-35
2022/08/27 06:04:36;;;;;;;;;;;;;;;16.43;90.71;101733.41;5117319;28;20463;-35
2022/08/27 06:07:02;;;;;;;5.77;2.53;;;;;;;16.37;91.88;101728.09;5117545;28;19911;-35
2022/08/27 06:09:28;;;;;;;;;;;;;;;16.51;90.78;101739.53;5117635;28;20413;-35
2022/08/27 06:11:55;;;;;;;6.97;2.85;;;;;;;16.38;91.28;101744.22;5116750;28;20430;-35
2022/08/27 06:14:21;;;;;;;6.55;3.15;;;;;;;16.41;91.59;101740.19;5116841;28;20058;-35
2022/08/27 06:16:47;;;;;;;;;;;;;;;16.46;90.76;101746.56;5118077;28;20059;-35
2022/08/27 06:19:13;;;;;;;6.32;3.00;;;;;;;16.45;91.39;101741.34;5116461;28;20434;-34
2022/08/27 06:21:41;;;;;;;8.38;3.10;;;;;;;16.45;91.06;101736.72;5117285;28;20374;-35
2022/08/27 06:24:07;;;;;;;7.03;2.90;;;;;;;16.51;91.03;101745.81;5116332;28;20451;-34
2022/08/27 06:26:34;;;;;;;5.50;2.80;;;;;;;16.50;91.22;101735.16;5116692;28;20028;-34
2022/08/27 06:29:05;;;;;;;7.10;2.90;;;;;;;16.54;91.42;101737.09;5116617;28;20038;-35
2022/08/27 06:31:31;;;;;;;8.25;2.92;;;;;;;16.56;90.37;101732.25;5116320;28;20467;-35
2022/08/27 06:34:01;;;;;;;6.45;2.83;;;;;;;16.61;90.31;101728.75;5116754;28;20062;-35
2022/08/27 06:36:28;;;;;;;6.88;2.58;;;;;;;16.70;90.61;101736.28;5116862;28;20034;-33
2022/08/27 06:38:55;;;;;;;6.05;3.00;;;;;;;16.65;90.23;101728.00;5116295;28;20059;-34
2022/08/27 06:41:23;;;;;;;4.95;2.78;;;;;;;16.80;90.17;101737.53;5117150;28;20468;-33
2022/08/27 06:43:48;;;;;;;3.90;2.55;;;;;;;16.87;89.33;101740.91;5116816;28;20098;-33
2022/08/27 06:46:15;;;;;;;;;;;;;;;16.99;89.45;101739.75;5116686;28;20540;-34
2022/08/27 06:48:43;;;;;;;6.47;2.75;;;;;;;16.83;90.40;101737.03;5116261;28;19950;-34
2022/08/27 06:51:17;;;;;;;6.22;2.55;;;;;;;16.88;89.71;101739.84;5116107;28;20030;-34
2022/08/27 06:53:45;;;;;;;6.75;2.67;;;;;;;16.93;88.61;101738.03;5115866;28;20110;-34
2022/08/27 06:56:12;;;;;;;5.72;2.33;;;;;;;16.95;88.92;101740.50;5116163;28;20026;-34
2022/08/27 06:58:38;;;;;;;9.13;2.80;;;;;;;16.95;89.02;101743.22;5116857;28;20096;-34
2022/08/27 07:01:11;;;;;;;;;;;;;;;17.14;88.91;101738.28;5116684;28;20031;-34
2022/08/27 07:03:36;;;;;;;5.38;2.55;;;;;;;17.10;88.71;101731.69;5115264;28;19907;-34
2022/08/27 07:06:05;;;;;;;;;;;;;;;17.20;88.19;101738.09;5116720;28;20104;-34
2022/08/27 07:08:30;;;;;;;5.82;2.42;;;;;;;17.17;87.00;101737.78;5115594;28;19914;-34
2022/08/27 07:10:56;;;;;;;;;;;;;;;17.30;87.41;101731.94;5115277;28;20028;-34
2022/08/27 07:13:21;;;;;;;6.53;2.47;;;;;;;17.27;86.01;101731.63;5115753;28;19914;-34
2022/08/27 07:15:47;;;;;;;;;;;;;;;17.35;86.10;101739.38;5116128;28;20039;-34
2022/08/27 07:18:12;;;;;;;7.80;2.93;;;;;;;17.22;86.60;101735.09;5116000;28;19935;-35
2022/08/27 07:20:39;;;;;;;;;;;;;;;17.34;86.64;101737.72;5115747;28;20510;-34
2022/08/27 07:23:04;;;;;;;7.75;2.80;;;;;;;17.30;86.99;101739.31;5115689;28;19954;-34
2022/08/27 07:25:31;;;;;;;;;;;;;;;17.45;87.02;101747.69;5115956;28;20067;-34
2022/08/27 07:27:56;;;;;;;7.78;2.90;;;;;;;17.29;86.62;101735.75;5115735;28;19918;-34
2022/08/27 07:30:21;;;;;;;;;;;;;;;17.51;86.27;101752.97;5115885;27;20024;-34
2022/08/27 07:32:47;;;;;;;6.50;2.83;;;;;;;17.49;86.32;101751.59;5115479;28;20005;-35
2022/08/27 07:35:12;;;;;;;;;;;;;;;17.61;86.17;101755.00;5115259;28;20281;-35
2022/08/27 07:37:39;;;;;;;10.30;3.22;;;;;;;17.56;85.86;101744.00;5115142;28;19907;-35
2022/08/27 07:40:11;;;;;;;6.88;3.55;;;;;;;17.55;84.97;101755.19;5115178;28;20031;-35
2022/08/27 07:45:20;;;;;;;5.22;3.00;;;;;;;17.62;84.32;101748.47;5115342;28;20112;-34
2022/08/27 07:47:48;;;;;;;8.45;3.53;;;;;;;17.66;84.25;101752.31;5115074;28;20059;-34
2022/08/27 07:50:14;;;;;;;9.85;3.33;;;;;;;17.71;84.37;101749.66;5114402;28;20027;-34
2022/08/27 07:52:41;;;;;;;5.72;3.53;;;;;;;17.71;84.22;101751.53;5114501;28;20028;-34
2022/08/27 07:55:07;;;;;;;4.97;3.15;;;;;;;17.68;83.10;101741.97;5115040;28;20053;-34
2022/08/27 07:57:32;;;;;;;6.28;3.60;;;;;;;17.86;82.92;101756.38;5113005;28;20500;-35
2022/08/27 07:59:58;;;;;;;;;;;;;;;17.97;83.12;101760.91;5114561;28;20035;-34
2022/08/27 08:02:23;;;;;;;5.63;3.40;;;;;;;17.89;82.36;101758.63;5114201;28;20243;-39
2022/08/27 08:04:48;;;;;;;5.22;3.17;;;;;;;18.05;81.84;101760.41;5113172;28;20036;-34
2022/08/27 08:07:14;;;;;;;;;;;;;;;18.20;83.15;101762.47;5114547;28;20126;-35
2022/08/27 08:09:39;;;;;;;7.32;3.10;;;;;;;18.21;80.50;101761.41;5114956;28;19962;-34
2022/08/27 08:12:04;;;;;;;;;;;;;;;18.36;81.81;101757.97;5114842;27;20550;-34
2022/08/27 08:14:31;;;;;;;5.50;2.78;;;;;;;18.43;78.70;101761.31;5113258;27;19957;-34
2022/08/27 08:17:03;;;;;;;7.07;2.13;;;;;;;18.55;75.17;101751.03;5114189;28;20039;-35
2022/08/27 08:19:28;;;;;;;3.55;1.95;;;;;;;18.56;71.97;101741.72;5114272;28;20023;-34
2022/08/27 08:21:54;;;;;;;3.72;1.80;;;;;;;18.70;72.28;101755.81;5114018;28;20035;-35
2022/08/27 08:24:20;;;;;;;;;;;;;;;18.75;72.44;101758.59;5114676;28;20027;-35
2022/08/27 08:26:45;;;;;;;5.00;1.85;;;;;;;18.61;70.74;101757.34;5114889;28;19911;-35
2022/08/27 08:29:11;;;;;;;5.93;1.90;;;;;;;18.65;71.65;101753.84;5114339;28;20394;-35
2022/08/27 08:31:37;;;;;;;5.45;1.80;;;;;;;18.66;71.02;101741.78;5114113;28;20040;-36
2022/08/27 08:34:02;;;;;;;4.55;1.75;;;;;;;18.81;70.42;101752.03;5114186;28;20028;-36
2022/08/27 08:36:28;;;;;;;4.30;1.50;;;;;;;18.93;68.84;101758.13;5114539;28;20050;-34
2022/08/27 08:38:53;;;;;;;;;;;;;;;19.16;69.17;101765.13;5114374;28;20102;-35
2022/08/27 08:41:30;;;;;;;5.20;1.73;;;;;;;19.19;68.53;101764.59;5113593;28;19947;-35
2022/08/27 08:43:57;;;;;;;3.30;1.55;;;;;;;19.23;66.04;101763.00;5113858;27;20035;-35
2022/08/27 08:46:40;;;;;;;3.45;1.50;;;;;;;19.35;68.79;101760.00;5113974;28;20027;-35
2022/08/27 08:49:50;;;;;;;5.18;1.40;;;;;;;19.50;68.80;101762.00;5114073;28;20039;-35
2022/08/27 08:52:33;;;;;;;4.28;1.60;;;;;;;19.61;67.63;101769.19;5030926;28;20053;-35
2022/08/27 08:55:26;;;;;;;4.55;1.60;;;;;;;19.76;68.30;101765.66;5030781;28;20480;-35
2022/08/27 08:58:16;;;;;;;3.17;1.50;;;;;;;19.86;68.22;101768.44;5030831;28;20120;-35
2022/08/27 09:00:44;;;;;;;4.38;1.80;;;;;;;19.83;66.08;101770.91;5031284;28;20046;-35
2022/08/27 09:03:11;;;;;;;4.82;1.65;;;;;;;19.68;64.55;101750.56;5030856;28;20045;-34
2022/08/27 09:05:42;;;;;;;3.35;1.50;;;;;;;19.80;66.00;101775.00;5030573;28;20129;-35
2022/08/27 09:08:41;;;;;;;4.97;1.65;;;;;;;19.86;66.35;101762.94;5031171;28;20473;-35
2022/08/27 09:11:38;;;;;;;4.05;1.65;;;;;;;19.85;64.87;101764.06;5031114;28;20029;-35
2022/08/27 09:14:20;;;;;;;3.55;1.42;;;;;;;19.89;64.36;101767.09;5031000;28;20144;-35
2022/08/27 09:16:45;;;;;;;3.67;1.65;;;;;;;20.00;64.50;101780.56;5030430;28;20045;-35
2022/08/27 09:19:10;;;;;;;3.88;1.55;;;;;;;20.00;67.25;101779.72;5030400;28;20551;-35
2022/08/27 09:21:49;;;;;;;7.55;2.00;;;;;;;20.08;66.64;101778.38;5030616;28;20037;-35
2022/08/27 09:24:22;;;;;;;4.18;1.50;;;;;;;19.93;65.38;101780.00;5031014;28;20037;-34
2022/08/27 09:26:47;;;;;;;6.32;1.70;;;;;;;19.68;63.98;101783.50;5032759;28;20029;-35
2022/08/27 09:29:15;;;;;;;3.00;1.35;;;;;;;19.84;65.47;101775.31;5092717;28;20051;-35
2022/08/27 09:32:06;;;;;;;4.30;1.73;;;;;;;20.17;65.21;101783.06;5117716;28;20064;-35
2022/08/27 09:34:38;;;;;;;4.20;1.27;;;;;;;20.20;65.05;101760.53;5105978;28;20039;-35
2022/08/27 09:37:09;;;;;;;6.60;1.55;;;;;;;20.35;62.23;101758.91;5117251;28;20475;-34
2022/08/27 09:39:40;;;;;;;3.55;1.35;;;;;;;20.61;61.53;101774.31;5117806;28;20028;-35
2022/08/27 09:42:06;;;;;;;3.75;1.48;;;;;;;20.85;62.04;101766.31;5117608;28;20055;-35
2022/08/27 09:44:31;;;;;;;5.30;1.65;;;;;;;20.97;60.01;101755.84;5117348;27;20048;-35
2022/08/27 09:47:02;;;;;;;5.85;1.63;;;;;;;21.22;61.51;101760.44;5118049;27;20139;-36
2022/08/27 09:49:29;;;;;;;3.75;1.60;;;;;;;21.32;59.77;101762.34;5117279;28;20031;-34
2022/08/27 09:51:55;;;;;;;5.72;1.70;;;;;;;21.15;58.74;101754.41;5117217;28;20043;-35
2022/08/27 09:54:41;;;;;;;7.03;1.98;;;;;;;21.18;62.01;101767.63;5117708;28;20097;-35
2022/08/27 09:57:08;;;;;;;3.80;1.38;;;;;;;20.91;59.17;101765.22;5117730;28;20047;-35
2022/08/27 09:59:37;;;;;;;7.00;1.58;;;;;;;20.98;61.63;101767.66;5117372;28;20066;-36
2022/08/27 10:02:19;;;;;;;3.45;1.45;;;;;;;21.01;59.92;101773.44;5116885;27;20483;-34
2022/08/27 10:04:53;;;;;;;4.85;1.58;;;;;;;21.33;58.89;101773.09;5116915;28;20585;-35
2022/08/27 10:07:29;;;;;;;3.38;1.30;;;;;;;21.50;58.54;101769.16;5116937;28;20103;-35
2022/08/27 10:10:06;;;;;;;4.25;1.33;;;;;;;21.58;58.03;101763.09;5116814;28;20503;-35
2022/08/27 10:12:40;;;;;;;5.47;1.40;;;;;;;21.48;56.97;101771.41;5118071;28;20337;-35
2022/08/27 10:15:10;;;;;;;2.95;1.38;;;;;;;21.38;58.26;101769.50;5116781;28;20036;-35
2022/08/27 10:18:09;;;;;;;3.15;1.08;;;;;;;21.30;58.86;101759.91;5117036;28;20035;-38
2022/08/27 10:20:51;;;;;;;3.25;1.30;;;;;;;21.23;59.08;101764.03;5116722;27;20498;-35
2022/08/27 10:23:38;;;;;;;4.18;1.38;;;;;;;21.07;58.38;101738.50;5116721;28;20020;-35
2022/08/27 10:26:11;;;;;;;5.07;1.45;;;;;;;21.06;58.85;101750.59;5117122;28;20024;-36
2022/08/27 10:28:52;;;;;;;2.75;1.15;;;;;;;21.08;58.53;101757.47;5116798;28;20035;-36
2022/08/27 10:31:44;;;;;;;4.95;1.48;;;;;;;21.22;58.93;101754.94;5116694;28;20016;-36
2022/08/27 10:34:12;;;;;;;3.10;1.30;;;;;;;21.21;57.73;101761.53;5116885;28;20031;-36
2022/08/27 10:37:19;;;;;;;2.50;1.17;;;;;;;21.38;59.33;101760.44;5116744;28;20055;-35
2022/08/27 10:40:15;;;;;;;3.58;1.27;;;;;;;21.42;58.84;101764.25;5032622;28;20030;-36
2022/08/27 10:42:46;;;;;;;4.22;1.35;;;;;;;21.45;58.72;101760.94;5033979;28;20040;-35
2022/08/27 10:45:33;;;;;;;4.75;1.48;;;;;;;21.43;58.02;101763.16;5033197;28;20033;-35
2022/08/27 10:48:24;;;;;;;4.40;1.13;;;;;;;21.38;58.67;101746.69;5033286;28;20124;-35
2022/08/27 10:51:17;;;;;;;4.05;1.30;;;;;;;21.54;57.92;101753.75;5033101;28;20029;-35
2022/08/27 10:54:00;;;;;;;3.90;1.17;;;;;;;21.98;58.76;101750.19;5033604;28;20045;-34
2022/08/27 10:56:43;;;;;;;3.17;1.10;;;;;;;22.29;55.60;101746.13;5033848;28;20120;-36
2022/08/27 10:59:45;;;;;;;4.20;1.10;;;;;;;22.28;56.84;101738.97;5032704;28;20519;-34
2022/08/27 11:02:29;;;;;;;1.60;1.00;;;;;;;21.84;55.04;101739.81;5033633;28;20040;-35
2022/08/27 11:05:01;;;;;;;2.67;0.93;;;;;;;21.75;56.01;101755.28;5032876;28;20091;-36
2022/08/27 11:07:35;;;;;;;4.75;1.60;;;;;;;21.65;55.89;101749.84;5033002;28;20039;-36
2022/08/27 11:10:01;;;;;;;3.60;0.95;;;;;;;21.69;57.61;101756.41;5032920;28;20069;-36
2022/08/27 11:12:35;;;;;;;5.45;1.27;;;;;;;21.64;57.11;101748.19;5034492;28;20033;-35
2022/08/27 11:15:08;;;;;;;2.75;1.20;;;;;;;21.55;57.29;101750.72;5116075;28;20039;-36
2022/08/27 11:18:00;;;;;;;3.80;1.30;;;;;;;21.57;55.30;101750.44;5116078;28;20032;-35
2022/08/27 11:20:43;;;;;;;3.50;1.20;;;;;;;21.53;57.10;101746.59;5115133;28;20032;-35
2022/08/27 11:23:15;;;;;;;3.35;0.95;;;;;;;21.61;55.76;101748.75;5115918;28;20034;-35
2022/08/27 11:25:55;;;;;;;3.60;1.55;;;;;;;21.56;55.56;101746.03;5115439;28;20031;-35
2022/08/27 11:28:26;;;;;;;3.45;1.10;;;;;;;21.51;56.19;101737.78;5116391;28;20336;-35
2022/08/27 11:31:12;;;;;;;2.70;1.05;;;;;;;21.56;55.75;101746.03;5115318;28;20037;-35
2022/08/27 11:33:56;;;;;;;3.47;1.05;;;;;;;21.70;55.56;101747.03;5115960;28;20042;-35
2022/08/27 11:36:56;;;;;;;2.65;0.93;;;;;;;21.86;55.64;101742.25;5114923;28;20149;-35
2022/08/27 11:39:40;;;;;;;7.07;1.60;;;;;;;21.86;54.05;101747.78;5115488;28;20023;-35
2022/08/27 11:42:20;;;;;;;4.10;1.27;;;;;;;21.89;54.91;101721.63;5114908;28;20036;-35
2022/08/27 11:44:48;;;;;;;4.03;1.20;;;;;;;22.06;55.97;101738.56;5115165;28;20042;-35
2022/08/27 11:47:19;;;;;;;4.60;1.10;;;;;;;22.09;52.58;101727.78;5115360;28;20470;-35
2022/08/27 11:49:48;;;;;;;2.70;0.93;;;;;;;22.36;53.49;101743.88;5114898;28;20309;-35
2022/08/27 11:52:28;;;;;;;3.08;1.42;;;;;;;22.51;54.07;101734.66;5115157;28;20110;-36
2022/08/27 11:55:13;;;;;;;4.28;1.30;;;;;;;22.63;53.44;101737.81;5114855;28;20388;-35
2022/08/27 11:57:39;;;;;;;4.88;1.30;;;;;;;22.53;52.03;101737.09;5114548;28;20059;-36